Login to view Products
 
Thursday, November 26, 2020 (03:12 UTC)
Ras Al Khaimah International Airport
ICAO: OMRK
IATA: RKT
  • METAR OMRK 260300Z 11007KT CAVOK 23/14 Q1018 A3008=
  • TAF OMRK 252300Z 2600/2706 11009KT 8000 NSC PROB30 TEMPO 2605/2613 10018G28KT 4000 BLDU PROB30 2611/2614 03012KT=
D:\Input Parser\Destinations\Final\23\OMRKL00062300437602863.txt
1